sensor_id;sensor_type;location;lat;lon;timestamp;pressure;altitude;pressure_sealevel;temperature;humidity
74921;BME280;63483;47.384;8.860;2023-07-29T00:01:34;94335.06;;;17.10;49.91
74921;BME280;63483;47.384;8.860;2023-07-29T00:03:59;94328.72;;;17.11;49.97
74921;BME280;63483;47.384;8.860;2023-07-29T00:06:26;94325.06;;;17.12;49.80
74921;BME280;63483;47.384;8.860;2023-07-29T00:08:51;94320.22;;;17.09;49.58
74921;BME280;63483;47.384;8.860;2023-07-29T00:11:17;94324.69;;;17.08;49.51
74921;BME280;63483;47.384;8.860;2023-07-29T00:13:42;94325.94;;;17.06;49.69
74921;BME280;63483;47.384;8.860;2023-07-29T00:16:07;94337.81;;;17.03;49.34
74921;BME280;63483;47.384;8.860;2023-07-29T00:18:33;94331.69;;;17.02;49.37
74921;BME280;63483;47.384;8.860;2023-07-29T00:20:58;94330.91;;;17.02;49.60
74921;BME280;63483;47.384;8.860;2023-07-29T00:23:24;94323.66;;;16.97;49.47
74921;BME280;63483;47.384;8.860;2023-07-29T00:25:49;94324.13;;;16.94;49.89
74921;BME280;63483;47.384;8.860;2023-07-29T00:28:15;94329.88;;;16.91;49.95
74921;BME280;63483;47.384;8.860;2023-07-29T00:30:40;94317.66;;;16.90;49.87
74921;BME280;63483;47.384;8.860;2023-07-29T00:33:05;94312.38;;;16.90;50.13
74921;BME280;63483;47.384;8.860;2023-07-29T00:35:31;94304.22;;;16.92;49.76
74921;BME280;63483;47.384;8.860;2023-07-29T00:37:56;94308.69;;;16.91;50.11
74921;BME280;63483;47.384;8.860;2023-07-29T00:40:22;94303.19;;;16.93;50.03
74921;BME280;63483;47.384;8.860;2023-07-29T00:42:48;94308.69;;;16.91;49.80
74921;BME280;63483;47.384;8.860;2023-07-29T00:45:14;94302.81;;;16.89;49.45
74921;BME280;63483;47.384;8.860;2023-07-29T00:47:39;94304.09;;;16.87;49.51
74921;BME280;63483;47.384;8.860;2023-07-29T00:50:06;94304.28;;;16.85;49.72
74921;BME280;63483;47.384;8.860;2023-07-29T00:52:32;94298.19;;;16.84;49.65
74921;BME280;63483;47.384;8.860;2023-07-29T00:54:57;94287.25;;;16.81;49.75
74921;BME280;63483;47.384;8.860;2023-07-29T00:57:23;94294.03;;;16.77;49.83
74921;BME280;63483;47.384;8.860;2023-07-29T00:59:50;94291.41;;;16.77;50.03
74921;BME280;63483;47.384;8.860;2023-07-29T01:02:16;94300.13;;;16.77;50.09
74921;BME280;63483;47.384;8.860;2023-07-29T01:04:41;94291.41;;;16.77;50.16
74921;BME280;63483;47.384;8.860;2023-07-29T01:07:20;94287.72;;;16.78;50.06
74921;BME280;63483;47.384;8.860;2023-07-29T01:10:52;94291.97;;;16.79;50.18
74921;BME280;63483;47.384;8.860;2023-07-29T01:13:06;94289.78;;;16.76;49.99
74921;BME280;63483;47.384;8.860;2023-07-29T01:15:38;94289.78;;;16.76;50.33
74921;BME280;63483;47.384;8.860;2023-07-29T01:21:10;94285.53;;;16.75;49.88
74921;BME280;63483;47.384;8.860;2023-07-29T01:23:36;94287.34;;;16.74;50.08
74921;BME280;63483;47.384;8.860;2023-07-29T01:26:02;94291.84;;;16.74;50.02
74921;BME280;63483;47.384;8.860;2023-07-29T01:28:28;94286.56;;;16.74;50.10
74921;BME280;63483;47.384;8.860;2023-07-29T01:31:10;94281.72;;;16.71;50.13
74921;BME280;63483;47.384;8.860;2023-07-29T01:33:42;94282.97;;;16.68;49.79
74921;BME280;63483;47.384;8.860;2023-07-29T01:36:16;94287.94;;;16.64;50.82
74921;BME280;63483;47.384;8.860;2023-07-29T01:38:44;94277.81;;;16.61;50.53
74921;BME280;63483;47.384;8.860;2023-07-29T01:41:10;94279.41;;;16.62;50.69
74921;BME280;63483;47.384;8.860;2023-07-29T01:43:37;94274.72;;;16.64;50.24
74921;BME280;63483;47.384;8.860;2023-07-29T01:46:11;94282.97;;;16.68;50.13
74921;BME280;63483;47.384;8.860;2023-07-29T01:48:37;94282.19;;;16.67;50.22
74921;BME280;63483;47.384;8.860;2023-07-29T01:51:03;94279.31;;;16.69;50.31
74921;BME280;63483;47.384;8.860;2023-07-29T01:53:28;94286.19;;;16.70;50.03
74921;BME280;63483;47.384;8.860;2023-07-29T01:55:53;94285.41;;;16.70;50.14
74921;BME280;63483;47.384;8.860;2023-07-29T01:58:19;94288.50;;;16.66;50.07
74921;BME280;63483;47.384;8.860;2023-07-29T02:00:44;94278.94;;;16.65;50.42
74921;BME280;63483;47.384;8.860;2023-07-29T02:03:09;94282.63;;;16.64;50.56
74921;BME280;63483;47.384;8.860;2023-07-29T02:05:34;94278.94;;;16.65;50.21
74921;BME280;63483;47.384;8.860;2023-07-29T02:08:00;94273.66;;;16.65;50.36
74921;BME280;63483;47.384;8.860;2023-07-29T02:10:25;94272.84;;;16.65;50.41
74921;BME280;63483;47.384;8.860;2023-07-29T02:12:51;94275.72;;;16.63;50.43
74921;BME280;63483;47.384;8.860;2023-07-29T02:15:16;94276.75;;;16.62;50.59
74921;BME280;63483;47.384;8.860;2023-07-29T02:17:42;94266.41;;;16.61;50.61
74921;BME280;63483;47.384;8.860;2023-07-29T02:20:07;94262.19;;;16.60;50.65
74921;BME280;63483;47.384;8.860;2023-07-29T02:22:33;94262.38;;;16.58;50.90
74921;BME280;63483;47.384;8.860;2023-07-29T02:24:59;94262.19;;;16.60;50.62
74921;BME280;63483;47.384;8.860;2023-07-29T02:27:24;94266.06;;;16.57;50.38
74921;BME280;63483;47.384;8.860;2023-07-29T02:29:52;94268.13;;;16.55;50.89
74921;BME280;63483;47.384;8.860;2023-07-29T02:32:17;94268.94;;;16.56;50.59
74921;BME280;63483;47.384;8.860;2023-07-29T02:34:42;94263.44;;;16.57;50.73
74921;BME280;63483;47.384;8.860;2023-07-29T02:37:08;94256.06;;;16.59;50.54
74921;BME280;63483;47.384;8.860;2023-07-29T02:39:33;94244.91;;;16.57;50.99
74921;BME280;63483;47.384;8.860;2023-07-29T02:41:58;94245.16;;;16.56;50.53
74921;BME280;63483;47.384;8.860;2023-07-29T02:44:24;94238.81;;;16.57;50.51
74921;BME280;63483;47.384;8.860;2023-07-29T02:46:50;94248.59;;;16.56;50.80
74921;BME280;63483;47.384;8.860;2023-07-29T02:49:17;94243.31;;;16.56;50.76
74921;BME280;63483;47.384;8.860;2023-07-29T02:51:42;94259.16;;;16.56;50.63
74921;BME280;63483;47.384;8.860;2023-07-29T02:54:08;94245.38;;;16.54;50.60
74921;BME280;63483;47.384;8.860;2023-07-29T02:56:33;94264.09;;;16.53;50.94
74921;BME280;63483;47.384;8.860;2023-07-29T02:58:58;94270.19;;;16.53;50.99
74921;BME280;63483;47.384;8.860;2023-07-29T03:01:24;94283.41;;;16.53;50.94
74921;BME280;63483;47.384;8.860;2023-07-29T03:03:50;94295.00;;;16.52;51.08
74921;BME280;63483;47.384;8.860;2023-07-29T03:06:16;94301.34;;;16.51;50.83
74921;BME280;63483;47.384;8.860;2023-07-29T03:08:41;94320.88;;;16.50;51.32
74921;BME280;63483;47.384;8.860;2023-07-29T03:11:08;94316.03;;;16.47;51.93
74921;BME280;63483;47.384;8.860;2023-07-29T03:13:34;94322.78;;;16.43;51.76
74921;BME280;63483;47.384;8.860;2023-07-29T03:16:13;94339.91;;;16.40;51.84
74921;BME280;63483;47.384;8.860;2023-07-29T03:18:40;94313.47;;;16.40;52.12
74921;BME280;63483;47.384;8.860;2023-07-29T03:21:06;94279.34;;;16.39;52.11
74921;BME280;63483;47.384;8.860;2023-07-29T03:23:32;94287.16;;;16.33;52.41
74921;BME280;63483;47.384;8.860;2023-07-29T03:25:59;94283.78;;;16.26;52.75
74921;BME280;63483;47.384;8.860;2023-07-29T03:28:29;94289.78;;;16.33;52.74
74921;BME280;63483;47.384;8.860;2023-07-29T03:30:55;94286.47;;;16.38;52.71
74921;BME280;63483;47.384;8.860;2023-07-29T03:33:21;94291.53;;;16.40;53.14
74921;BME280;63483;47.384;8.860;2023-07-29T03:35:46;94287.63;;;16.42;52.75
74921;BME280;63483;47.384;8.860;2023-07-29T03:38:12;94293.59;;;16.38;52.74
74921;BME280;63483;47.384;8.860;2023-07-29T03:40:38;94297.84;;;16.39;53.10
74921;BME280;63483;47.384;8.860;2023-07-29T03:43:04;94299.81;;;16.43;53.24
74921;BME280;63483;47.384;8.860;2023-07-29T03:45:29;94322.34;;;16.46;52.97
74921;BME280;63483;47.384;8.860;2023-07-29T03:47:54;94375.19;;;16.46;52.97
74921;BME280;63483;47.384;8.860;2023-07-29T03:50:20;94364.63;;;16.46;53.30
74921;BME280;63483;47.384;8.860;2023-07-29T03:52:45;94359.34;;;16.46;53.33
74921;BME280;63483;47.384;8.860;2023-07-29T03:55:12;94337.47;;;16.39;53.43
74921;BME280;63483;47.384;8.860;2023-07-29T03:57:37;94336.69;;;16.38;53.76
74921;BME280;63483;47.384;8.860;2023-07-29T04:00:03;94338.75;;;16.36;53.67
74921;BME280;63483;47.384;8.860;2023-07-29T04:02:28;94327.97;;;16.38;53.13
74921;BME280;63483;47.384;8.860;2023-07-29T04:04:53;94327.34;;;16.36;53.59
74921;BME280;63483;47.384;8.860;2023-07-29T04:07:19;94326.47;;;16.42;53.28
74921;BME280;63483;47.384;8.860;2023-07-29T04:09:44;94323.59;;;16.43;53.02
74921;BME280;63483;47.384;8.860;2023-07-29T04:12:10;94323.34;;;16.45;53.22
74921;BME280;63483;47.384;8.860;2023-07-29T04:14:35;94322.34;;;16.46;52.93
74921;BME280;63483;47.384;8.860;2023-07-29T04:17:00;94317.50;;;16.43;53.71
74921;BME280;63483;47.384;8.860;2023-07-29T04:19:26;94316.78;;;16.36;53.04
74921;BME280;63483;47.384;8.860;2023-07-29T04:21:51;94322.06;;;16.36;53.25
74921;BME280;63483;47.384;8.860;2023-07-29T04:24:17;94322.91;;;16.36;53.50
74921;BME280;63483;47.384;8.860;2023-07-29T04:26:42;94322.44;;;16.39;53.58
74921;BME280;63483;47.384;8.860;2023-07-29T04:29:07;94318.19;;;16.38;52.81
74921;BME280;63483;47.384;8.860;2023-07-29T04:31:32;94316.09;;;16.40;53.66
74921;BME280;63483;47.384;8.860;2023-07-29T04:33:58;94313.00;;;16.43;53.23
74921;BME280;63483;47.384;8.860;2023-07-29T04:36:23;94318.69;;;16.47;53.29
74921;BME280;63483;47.384;8.860;2023-07-29T04:38:49;94325.78;;;16.46;53.31
74921;BME280;63483;47.384;8.860;2023-07-29T04:41:14;94325.59;;;16.48;53.52
74921;BME280;63483;47.384;8.860;2023-07-29T04:43:39;94325.59;;;16.48;53.65
74921;BME280;63483;47.384;8.860;2023-07-29T04:46:07;94321.16;;;16.42;53.65
74921;BME280;63483;47.384;8.860;2023-07-29T04:48:33;94331.63;;;16.37;53.79
74921;BME280;63483;47.384;8.860;2023-07-29T04:50:59;94326.91;;;16.39;53.67
74921;BME280;63483;47.384;8.860;2023-07-29T04:53:24;94329.94;;;16.42;53.86
74921;BME280;63483;47.384;8.860;2023-07-29T04:55:49;94330.16;;;16.41;53.54
74921;BME280;63483;47.384;8.860;2023-07-29T04:58:15;94329.69;;;16.44;54.03
74921;BME280;63483;47.384;8.860;2023-07-29T05:00:40;94322.34;;;16.46;53.49
74921;BME280;63483;47.384;8.860;2023-07-29T05:03:05;94315.44;;;16.45;53.34
74921;BME280;63483;47.384;8.860;2023-07-29T05:05:31;94310.59;;;16.42;53.43
74921;BME280;63483;47.384;8.860;2023-07-29T05:07:57;94305.31;;;16.42;53.38
74921;BME280;63483;47.384;8.860;2023-07-29T05:10:22;94309.34;;;16.44;53.86
74921;BME280;63483;47.384;8.860;2023-07-29T05:12:48;94326.00;;;16.45;53.95
74921;BME280;63483;47.384;8.860;2023-07-29T05:15:13;94317.66;;;16.48;53.31
74921;BME280;63483;47.384;8.860;2023-07-29T05:17:39;94322.72;;;16.49;53.48
74921;BME280;63483;47.384;8.860;2023-07-29T05:20:05;94320.63;;;16.52;53.64
74921;BME280;63483;47.384;8.860;2023-07-29T05:22:30;94330.19;;;16.53;53.84
74921;BME280;63483;47.384;8.860;2023-07-29T05:24:55;94326.88;;;16.57;54.09
74921;BME280;63483;47.384;8.860;2023-07-29T05:27:21;94329.06;;;16.60;54.09
74921;BME280;63483;47.384;8.860;2023-07-29T05:29:46;94328.16;;;16.66;53.88
74921;BME280;63483;47.384;8.860;2023-07-29T05:32:11;94338.66;;;16.73;54.07
74921;BME280;63483;47.384;8.860;2023-07-29T05:34:37;94338.75;;;16.78;53.75
74921;BME280;63483;47.384;8.860;2023-07-29T05:37:02;94342.19;;;16.79;54.05
74921;BME280;63483;47.384;8.860;2023-07-29T05:39:27;94339.34;;;16.80;53.98
74921;BME280;63483;47.384;8.860;2023-07-29T05:41:53;94341.75;;;16.82;54.28
74921;BME280;63483;47.384;8.860;2023-07-29T05:44:18;94349.13;;;16.80;53.96
74921;BME280;63483;47.384;8.860;2023-07-29T05:46:43;94341.75;;;16.82;54.23
74921;BME280;63483;47.384;8.860;2023-07-29T05:49:08;94351.53;;;16.81;53.98
74921;BME280;63483;47.384;8.860;2023-07-29T05:51:34;94348.09;;;16.81;54.50
74921;BME280;63483;47.384;8.860;2023-07-29T05:53:59;94342.56;;;16.82;54.34
74921;BME280;63483;47.384;8.860;2023-07-29T05:56:24;94340.50;;;16.84;54.48
74921;BME280;63483;47.384;8.860;2023-07-29T05:58:49;94346.97;;;16.89;54.11
74921;BME280;63483;47.384;8.860;2023-07-29T06:01:15;94349.41;;;16.90;54.25
74921;BME280;63483;47.384;8.860;2023-07-29T06:03:40;94351.03;;;16.91;54.46
74921;BME280;63483;47.384;8.860;2023-07-29T06:06:05;94347.31;;;16.92;54.49
74921;BME280;63483;47.384;8.860;2023-07-29T06:08:31;94351.59;;;16.93;54.18
74921;BME280;63483;47.384;8.860;2023-07-29T06:10:59;94357.44;;;16.95;54.23
74921;BME280;63483;47.384;8.860;2023-07-29T06:13:24;94358.38;;;17.01;54.57
74921;BME280;63483;47.384;8.860;2023-07-29T06:15:50;94359.78;;;17.03;54.32
74921;BME280;63483;47.384;8.860;2023-07-29T06:18:15;94357.28;;;17.09;54.05
74921;BME280;63483;47.384;8.860;2023-07-29T06:20:40;94354.63;;;17.09;53.46
74921;BME280;63483;47.384;8.860;2023-07-29T06:23:05;94358.63;;;17.11;53.07
74921;BME280;63483;47.384;8.860;2023-07-29T06:25:31;94349.09;;;17.10;52.89
74921;BME280;63483;47.384;8.860;2023-07-29T06:27:56;94359.56;;;17.17;53.05
74921;BME280;63483;47.384;8.860;2023-07-29T06:30:23;94354.41;;;17.22;52.73
74921;BME280;63483;47.384;8.860;2023-07-29T06:32:48;94361.66;;;17.27;53.05
74921;BME280;63483;47.384;8.860;2023-07-29T06:35:14;94357.72;;;17.29;53.25
74921;BME280;63483;47.384;8.860;2023-07-29T06:37:39;94362.59;;;17.32;53.12
74921;BME280;63483;47.384;8.860;2023-07-29T06:40:05;94358.44;;;17.36;52.88
74921;BME280;63483;47.384;8.860;2023-07-29T06:42:30;94366.50;;;17.42;52.75
74921;BME280;63483;47.384;8.860;2023-07-29T06:44:55;94364.41;;;17.44;52.86
74921;BME280;63483;47.384;8.860;2023-07-29T06:47:21;94361.91;;;17.49;53.20
74921;BME280;63483;47.384;8.860;2023-07-29T06:49:46;94364.41;;;17.55;53.46
74921;BME280;63483;47.384;8.860;2023-07-29T06:52:12;94362.16;;;17.59;53.26
74921;BME280;63483;47.384;8.860;2023-07-29T06:54:37;94357.91;;;17.70;53.20
74921;BME280;63483;47.384;8.860;2023-07-29T06:57:03;94350.88;;;17.76;53.36
74921;BME280;63483;47.384;8.860;2023-07-29T06:59:28;94356.50;;;17.79;53.52
74921;BME280;63483;47.384;8.860;2023-07-29T07:01:53;94355.78;;;17.84;52.79
74921;BME280;63483;47.384;8.860;2023-07-29T07:04:19;94364.91;;;17.88;53.28
74921;BME280;63483;47.384;8.860;2023-07-29T07:06:44;94361.78;;;17.91;53.49
74921;BME280;63483;47.384;8.860;2023-07-29T07:09:09;94365.25;;;17.92;53.39
74921;BME280;63483;47.384;8.860;2023-07-29T07:11:35;94352.56;;;17.94;53.21
74921;BME280;63483;47.384;8.860;2023-07-29T07:14:00;94357.06;;;17.93;53.00
74921;BME280;63483;47.384;8.860;2023-07-29T07:16:25;94362.69;;;17.97;53.64
74921;BME280;63483;47.384;8.860;2023-07-29T07:18:51;94357.72;;;18.00;53.35
74921;BME280;63483;47.384;8.860;2023-07-29T07:21:16;94352.63;;;18.11;53.78
74921;BME280;63483;47.384;8.860;2023-07-29T07:23:41;94349.06;;;18.17;53.55
74921;BME280;63483;47.384;8.860;2023-07-29T07:26:07;94339.69;;;18.26;53.58
74921;BME280;63483;47.384;8.860;2023-07-29T07:28:32;94333.81;;;18.36;52.81
74921;BME280;63483;47.384;8.860;2023-07-29T07:30:58;94335.19;;;18.38;51.95
74921;BME280;63483;47.384;8.860;2023-07-29T07:33:24;94338.97;;;18.42;51.87
74921;BME280;63483;47.384;8.860;2023-07-29T07:35:49;94336.41;;;18.48;51.70
74921;BME280;63483;47.384;8.860;2023-07-29T07:38:15;94339.16;;;18.53;51.75
74921;BME280;63483;47.384;8.860;2023-07-29T07:40:40;94329.53;;;18.64;51.45
74921;BME280;63483;47.384;8.860;2023-07-29T07:43:05;94339.53;;;18.73;51.79
74921;BME280;63483;47.384;8.860;2023-07-29T07:45:32;94333.94;;;18.87;51.78
74921;BME280;63483;47.384;8.860;2023-07-29T07:47:57;94334.47;;;18.89;51.35
74921;BME280;63483;47.384;8.860;2023-07-29T07:50:23;94327.19;;;18.96;51.32
74921;BME280;63483;47.384;8.860;2023-07-29T07:52:49;94323.69;;;19.07;50.29
74921;BME280;63483;47.384;8.860;2023-07-29T07:55:14;94318.69;;;19.11;50.26
74921;BME280;63483;47.384;8.860;2023-07-29T07:57:39;94314.03;;;19.18;49.85
74921;BME280;63483;47.384;8.860;2023-07-29T08:00:05;94315.47;;;19.26;50.16
74921;BME280;63483;47.384;8.860;2023-07-29T08:02:31;94316.25;;;19.43;49.97
74921;BME280;63483;47.384;8.860;2023-07-29T08:04:56;94308.38;;;19.49;49.82
74921;BME280;63483;47.384;8.860;2023-07-29T08:07:21;94315.34;;;19.55;49.38
74921;BME280;63483;47.384;8.860;2023-07-29T08:09:46;94319.59;;;19.56;49.82
74921;BME280;63483;47.384;8.860;2023-07-29T08:12:12;94324.41;;;19.59;49.73
74921;BME280;63483;47.384;8.860;2023-07-29T08:14:37;94333.63;;;19.68;49.62
74921;BME280;63483;47.384;8.860;2023-07-29T08:17:03;94324.50;;;19.64;48.96
74921;BME280;63483;47.384;8.860;2023-07-29T08:19:28;94318.16;;;19.65;48.99
74921;BME280;63483;47.384;8.860;2023-07-29T08:21:53;94322.34;;;19.61;47.94
74921;BME280;63483;47.384;8.860;2023-07-29T08:24:19;94329.75;;;19.76;49.17
74921;BME280;63483;47.384;8.860;2023-07-29T08:26:44;94329.09;;;19.86;49.15
74921;BME280;63483;47.384;8.860;2023-07-29T08:29:09;94329.44;;;19.94;48.63
74921;BME280;63483;47.384;8.860;2023-07-29T08:31:34;94334.84;;;19.99;48.57
74921;BME280;63483;47.384;8.860;2023-07-29T08:34:00;94331.44;;;20.04;48.11
74921;BME280;63483;47.384;8.860;2023-07-29T08:36:26;94328.03;;;20.09;47.78
74921;BME280;63483;47.384;8.860;2023-07-29T08:38:51;94325.13;;;20.10;47.67
74921;BME280;63483;47.384;8.860;2023-07-29T08:41:20;94328.16;;;20.19;47.53
74921;BME280;63483;47.384;8.860;2023-07-29T08:43:53;94330.06;;;20.24;48.20
74921;BME280;63483;47.384;8.860;2023-07-29T08:46:21;94321.53;;;20.22;47.69
74921;BME280;63483;47.384;8.860;2023-07-29T08:48:47;94328.50;;;20.28;47.82
74921;BME280;63483;47.384;8.860;2023-07-29T08:51:12;94322.41;;;20.27;47.10
74921;BME280;63483;47.384;8.860;2023-07-29T08:53:39;94332.06;;;20.33;47.42
74921;BME280;63483;47.384;8.860;2023-07-29T08:56:07;94332.69;;;20.41;47.83
74921;BME280;63483;47.384;8.860;2023-07-29T08:58:33;94331.13;;;20.45;46.74
74921;BME280;63483;47.384;8.860;2023-07-29T09:00:58;94326.72;;;20.56;46.92
74921;BME280;63483;47.384;8.860;2023-07-29T09:03:23;94334.56;;;20.67;46.64
74921;BME280;63483;47.384;8.860;2023-07-29T09:05:50;94326.41;;;20.79;47.59
74921;BME280;63483;47.384;8.860;2023-07-29T09:08:16;94333.13;;;20.87;46.60
74921;BME280;63483;47.384;8.860;2023-07-29T09:10:41;94344.19;;;21.01;46.13
74921;BME280;63483;47.384;8.860;2023-07-29T09:13:07;94344.84;;;21.13;45.43
74921;BME280;63483;47.384;8.860;2023-07-29T09:15:34;94340.38;;;21.19;45.66
74921;BME280;63483;47.384;8.860;2023-07-29T09:18:12;94336.09;;;21.18;43.75
74921;BME280;63483;47.384;8.860;2023-07-29T09:20:37;94342.47;;;21.17;45.91
74921;BME280;63483;47.384;8.860;2023-07-29T09:23:03;94333.97;;;21.20;45.59
74921;BME280;63483;47.384;8.860;2023-07-29T09:25:32;94327.91;;;21.30;45.04
74921;BME280;63483;47.384;8.860;2023-07-29T09:28:00;94334.59;;;21.32;44.97
74921;BME280;63483;47.384;8.860;2023-07-29T09:30:26;94319.19;;;21.02;44.86
74921;BME280;63483;47.384;8.860;2023-07-29T09:32:55;94330.44;;;21.09;46.02
74921;BME280;63483;47.384;8.860;2023-07-29T09:35:21;94320.72;;;21.30;45.68
74921;BME280;63483;47.384;8.860;2023-07-29T09:37:46;94323.19;;;21.42;45.04
74921;BME280;63483;47.384;8.860;2023-07-29T09:40:14;94321.09;;;21.44;44.61
74921;BME280;63483;47.384;8.860;2023-07-29T09:42:47;94329.09;;;21.44;44.52
74921;BME280;63483;47.384;8.860;2023-07-29T09:45:19;94323.28;;;21.52;43.94
74921;BME280;63483;47.384;8.860;2023-07-29T09:47:46;94325.50;;;21.61;43.48
74921;BME280;63483;47.384;8.860;2023-07-29T09:50:11;94327.13;;;21.72;43.89
74921;BME280;63483;47.384;8.860;2023-07-29T09:52:37;94330.38;;;21.74;42.79
74921;BME280;63483;47.384;8.860;2023-07-29T09:55:02;94309.31;;;21.78;42.55
74921;BME280;63483;47.384;8.860;2023-07-29T09:57:28;94324.53;;;21.77;42.93
74921;BME280;63483;47.384;8.860;2023-07-29T09:59:56;94320.28;;;21.81;42.81
74921;BME280;63483;47.384;8.860;2023-07-29T10:02:22;94335.22;;;21.87;42.69
74921;BME280;63483;47.384;8.860;2023-07-29T10:04:51;94334.97;;;21.94;43.05
74921;BME280;63483;47.384;8.860;2023-07-29T10:07:17;94327.81;;;22.00;43.88
74921;BME280;63483;47.384;8.860;2023-07-29T10:09:45;94321.97;;;22.03;42.70
74921;BME280;63483;47.384;8.860;2023-07-29T10:12:11;94315.84;;;22.02;43.71
74921;BME280;63483;47.384;8.860;2023-07-29T10:14:38;94318.25;;;22.04;43.33
74921;BME280;63483;47.384;8.860;2023-07-29T10:17:05;94333.72;;;22.07;43.25
74921;BME280;63483;47.384;8.860;2023-07-29T10:19:31;94323.88;;;22.13;42.99
74921;BME280;63483;47.384;8.860;2023-07-29T10:21:59;94330.00;;;22.08;43.29
74921;BME280;63483;47.384;8.860;2023-07-29T10:24:29;94328.91;;;22.09;41.90
74921;BME280;63483;47.384;8.860;2023-07-29T10:27:00;94325.97;;;22.00;41.73
74921;BME280;63483;47.384;8.860;2023-07-29T10:29:30;94333.19;;;22.05;43.65
74921;BME280;63483;47.384;8.860;2023-07-29T10:31:57;94332.16;;;22.11;43.57
74921;BME280;63483;47.384;8.860;2023-07-29T10:34:23;94325.22;;;22.15;40.92
74921;BME280;63483;47.384;8.860;2023-07-29T10:36:50;94322.09;;;22.29;42.52
74921;BME280;63483;47.384;8.860;2023-07-29T10:39:15;94311.19;;;22.46;43.81
74921;BME280;63483;47.384;8.860;2023-07-29T10:47:12;94311.44;;;22.34;40.30
74921;BME280;63483;47.384;8.860;2023-07-29T10:49:40;94302.38;;;22.40;43.14
74921;BME280;63483;47.384;8.860;2023-07-29T10:52:06;94307.22;;;22.53;41.45
74921;BME280;63483;47.384;8.860;2023-07-29T10:54:42;94302.97;;;22.68;40.95
74921;BME280;63483;47.384;8.860;2023-07-29T10:57:07;94303.28;;;22.82;41.74
74921;BME280;63483;47.384;8.860;2023-07-29T10:59:33;94298.75;;;22.98;43.31
74921;BME280;63483;47.384;8.860;2023-07-29T11:02:00;94291.28;;;23.10;42.47
74921;BME280;63483;47.384;8.860;2023-07-29T11:04:27;94295.56;;;23.26;41.85
74921;BME280;63483;47.384;8.860;2023-07-29T11:09:52;94281.38;;;23.26;40.94
74921;BME280;63483;47.384;8.860;2023-07-29T11:12:44;94276.31;;;23.24;42.15
74921;BME280;63483;47.384;8.860;2023-07-29T11:20:12;94282.47;;;23.09;41.40
74921;BME280;63483;47.384;8.860;2023-07-29T11:22:38;94280.59;;;23.05;41.39
74921;BME280;63483;47.384;8.860;2023-07-29T11:25:05;94265.13;;;22.97;41.06
74921;BME280;63483;47.384;8.860;2023-07-29T11:27:32;94257.66;;;22.88;41.17
74921;BME280;63483;47.384;8.860;2023-07-29T11:30:05;94266.13;;;22.80;40.90
74921;BME280;63483;47.384;8.860;2023-07-29T11:32:31;94274.69;;;22.72;41.31
74921;BME280;63483;47.384;8.860;2023-07-29T11:35:01;94273.38;;;22.64;41.57
74921;BME280;63483;47.384;8.860;2023-07-29T11:37:26;94274.13;;;22.54;42.92
74921;BME280;63483;47.384;8.860;2023-07-29T11:39:52;94262.91;;;22.47;43.88
74921;BME280;63483;47.384;8.860;2023-07-29T11:42:17;94260.78;;;22.39;44.42
74921;BME280;63483;47.384;8.860;2023-07-29T11:44:42;94267.16;;;22.28;44.81
74921;BME280;63483;47.384;8.860;2023-07-29T11:47:09;94281.78;;;22.20;45.04
74921;BME280;63483;47.384;8.860;2023-07-29T11:49:35;94299.88;;;22.13;44.21
74921;BME280;63483;47.384;8.860;2023-07-29T11:52:02;94300.09;;;22.06;45.18
74921;BME280;63483;47.384;8.860;2023-07-29T11:54:28;94310.72;;;21.96;46.65
74921;BME280;63483;47.384;8.860;2023-07-29T11:56:54;94348.53;;;21.82;47.34
74921;BME280;63483;47.384;8.860;2023-07-29T11:59:20;94400.69;;;21.68;47.90
74921;BME280;63483;47.384;8.860;2023-07-29T12:01:45;94392.25;;;21.49;47.57
74921;BME280;63483;47.384;8.860;2023-07-29T12:04:11;94363.09;;;21.32;47.84
74921;BME280;63483;47.384;8.860;2023-07-29T12:06:38;94309.91;;;21.10;47.57
74921;BME280;63483;47.384;8.860;2023-07-29T12:09:04;94309.03;;;20.99;47.74
74921;BME280;63483;47.384;8.860;2023-07-29T12:11:30;94310.03;;;20.93;46.83
74921;BME280;63483;47.384;8.860;2023-07-29T12:13:55;94322.22;;;20.89;47.91
74921;BME280;63483;47.384;8.860;2023-07-29T12:16:21;94339.16;;;20.77;47.84
74921;BME280;63483;47.384;8.860;2023-07-29T12:18:46;94353.22;;;20.73;47.99
74921;BME280;63483;47.384;8.860;2023-07-29T12:21:14;94351.69;;;20.55;46.60
74921;BME280;63483;47.384;8.860;2023-07-29T12:23:39;94351.09;;;20.47;47.17
74921;BME280;63483;47.384;8.860;2023-07-29T12:26:05;94349.69;;;20.40;46.82
74921;BME280;63483;47.384;8.860;2023-07-29T12:28:30;94347.44;;;20.31;46.80
74921;BME280;63483;47.384;8.860;2023-07-29T12:30:56;94339.59;;;20.20;46.54
74921;BME280;63483;47.384;8.860;2023-07-29T12:33:33;94338.97;;;20.12;46.59
74921;BME280;63483;47.384;8.860;2023-07-29T12:35:59;94332.97;;;20.00;47.13
74921;BME280;63483;47.384;8.860;2023-07-29T12:38:28;94331.31;;;19.94;47.90
74921;BME280;63483;47.384;8.860;2023-07-29T12:40:54;94330.19;;;19.90;48.16
74921;BME280;63483;47.384;8.860;2023-07-29T12:43:20;94338.88;;;19.85;48.02
74921;BME280;63483;47.384;8.860;2023-07-29T12:45:45;94332.78;;;19.85;47.84
74921;BME280;63483;47.384;8.860;2023-07-29T12:48:11;94342.84;;;19.82;48.35
74921;BME280;63483;47.384;8.860;2023-07-29T12:50:37;94340.13;;;19.77;48.76
74921;BME280;63483;47.384;8.860;2023-07-29T12:53:04;94334.25;;;19.75;48.91
74921;BME280;63483;47.384;8.860;2023-07-29T12:55:30;94340.06;;;19.72;49.19
74921;BME280;63483;47.384;8.860;2023-07-29T12:57:55;94326.22;;;19.70;49.50
74921;BME280;63483;47.384;8.860;2023-07-29T13:00:21;94326.22;;;19.70;49.38
74921;BME280;63483;47.384;8.860;2023-07-29T13:02:46;94324.59;;;19.69;49.36
74921;BME280;63483;47.384;8.860;2023-07-29T13:05:12;94335.69;;;19.66;49.69
74921;BME280;63483;47.384;8.860;2023-07-29T13:07:39;94345.50;;;19.65;50.71
74921;BME280;63483;47.384;8.860;2023-07-29T13:10:05;94373.34;;;19.63;50.13
74921;BME280;63483;47.384;8.860;2023-07-29T13:12:30;94488.25;;;19.24;49.32